createdAt,value
2023-03-13T00:00:39.525Z,14.70
2023-03-13T00:03:42.176Z,18.70
2023-03-13T00:06:46.609Z,14.43
2023-03-13T00:09:49.686Z,12.50
2023-03-13T00:12:51.998Z,15.05
2023-03-13T00:16:04.627Z,17.35
2023-03-13T00:19:09.308Z,15.75
2023-03-13T00:22:11.784Z,13.85
2023-03-13T00:25:14.143Z,14.25
2023-03-13T00:28:16.363Z,12.52
2023-03-13T00:31:25.412Z,12.40
2023-03-13T00:34:30.481Z,13.23
2023-03-13T00:37:34.076Z,13.57
2023-03-13T00:40:41.611Z,12.10
2023-03-13T00:43:45.120Z,11.70
2023-03-13T00:46:49.891Z,12.18
2023-03-13T00:49:52.277Z,12.18
2023-03-13T00:52:54.581Z,11.50
2023-03-13T00:55:59.882Z,12.45
2023-03-13T00:59:04.770Z,12.55
2023-03-13T01:02:07.065Z,11.85
2023-03-13T01:05:10.057Z,8.77
2023-03-13T01:08:14.505Z,9.88
2023-03-13T01:11:23.353Z,11.50
2023-03-13T01:14:28.661Z,11.52
2023-03-13T01:17:35.762Z,10.05
2023-03-13T01:20:41.427Z,11.27
2023-03-13T01:23:46.620Z,12.48
2023-03-13T01:26:49.927Z,12.05
2023-03-13T01:29:56.602Z,10.32
2023-03-13T01:32:58.948Z,11.68
2023-03-13T01:36:02.951Z,12.18
2023-03-13T01:39:10.728Z,10.45
2023-03-13T01:42:17.728Z,9.55
2023-03-13T01:45:54.047Z,10.32
2023-03-13T01:49:05.433Z,9.70
2023-03-13T01:52:25.912Z,9.65
2023-03-13T01:55:34.777Z,9.15
2023-03-13T01:58:38.289Z,7.90
2023-03-13T02:01:42.534Z,10.43
2023-03-13T02:04:55.043Z,11.35
2023-03-13T02:07:59.856Z,10.15
2023-03-13T02:11:08.908Z,11.02
2023-03-13T02:14:17.233Z,12.30
2023-03-13T02:17:20.256Z,9.35
2023-03-13T02:20:22.921Z,11.65
2023-03-13T02:23:39.233Z,10.23
2023-03-13T02:26:46.806Z,9.75
2023-03-13T02:29:49.896Z,9.95
2023-03-13T02:32:57.504Z,10.88
2023-03-13T02:36:03.544Z,10.00
2023-03-13T02:39:12.363Z,8.93
2023-03-13T02:42:19.255Z,8.15
2023-03-13T02:45:27.836Z,7.47
2023-03-13T02:48:43.464Z,7.90
2023-03-13T02:51:48.962Z,13.20
2023-03-13T02:57:57.214Z,7.20
2023-03-13T03:01:07.713Z,8.50
2023-03-13T03:04:12.825Z,9.18
2023-03-13T03:07:17.538Z,5.68
2023-03-13T03:10:20.237Z,8.48
2023-03-13T03:13:25.925Z,8.43
2023-03-13T03:16:28.236Z,8.45
2023-03-13T03:19:32.973Z,9.55
2023-03-13T03:22:40.890Z,9.30
2023-03-13T03:25:45.830Z,8.05
2023-03-13T03:28:48.580Z,7.50
2023-03-13T03:31:53.803Z,6.90
2023-03-13T03:34:56.578Z,9.73
2023-03-13T03:37:59.792Z,9.27
2023-03-13T03:41:04.263Z,7.60
2023-03-13T03:44:07.331Z,7.68
2023-03-13T03:47:23.189Z,9.05
2023-03-13T03:50:30.608Z,10.30
2023-03-13T03:53:36.214Z,8.35
2023-03-13T03:56:38.781Z,9.75
2023-03-13T03:59:41.098Z,9.02
2023-03-13T04:02:47.021Z,8.98
2023-03-13T04:05:51.898Z,9.52
2023-03-13T04:08:56.987Z,7.82
2023-03-13T04:12:01.765Z,9.00
2023-03-13T04:15:10.676Z,9.88
2023-03-13T04:18:13.255Z,12.27
2023-03-13T04:21:20.753Z,9.55
2023-03-13T04:24:27.613Z,7.70
2023-03-13T04:27:36.535Z,11.27
2023-03-13T04:30:39.570Z,9.52
2023-03-13T04:33:58.231Z,12.18
2023-03-13T04:37:28.646Z,12.40
2023-03-13T04:40:49.739Z,11.60
2023-03-13T04:44:10.752Z,11.32
2023-03-13T04:47:46.552Z,11.52
2023-03-13T04:51:09.544Z,9.00
2023-03-13T04:54:42.065Z,8.75
2023-03-13T04:57:59.287Z,11.40
2023-03-13T05:01:19.524Z,11.65
2023-03-13T05:04:27.696Z,10.45
2023-03-13T05:07:53.414Z,11.85
2023-03-13T05:11:24.732Z,9.27
2023-03-13T05:14:39.552Z,11.13
2023-03-13T05:17:59.348Z,11.65
2023-03-13T05:21:24.531Z,12.82
2023-03-13T05:24:42.114Z,12.30
2023-03-13T05:28:03.297Z,9.18
2023-03-13T05:31:22.393Z,14.45
2023-03-13T05:34:47.081Z,12.13
2023-03-13T05:38:20.507Z,10.95
2023-03-13T05:41:54.696Z,12.95
2023-03-13T05:45:35.052Z,12.63
2023-03-13T05:48:55.477Z,11.85
2023-03-13T05:52:16.209Z,10.43
2023-03-13T05:55:40.856Z,10.82
2023-03-13T05:59:19.058Z,16.05
2023-03-13T06:02:37.548Z,13.57
2023-03-13T06:05:41.295Z,11.02
2023-03-13T06:08:57.810Z,8.82
2023-03-13T06:12:03.967Z,10.55
2023-03-13T06:15:11.691Z,12.13
2023-03-13T06:18:43.968Z,10.13
2023-03-13T06:21:48.566Z,8.73
2023-03-13T06:24:56.428Z,10.00
2023-03-13T06:27:58.768Z,13.35
2023-03-13T06:31:05.733Z,11.70
2023-03-13T06:34:11.291Z,9.48
2023-03-13T06:37:13.668Z,13.38
2023-03-13T06:40:18.538Z,11.88
2023-03-13T06:43:25.658Z,13.98
2023-03-13T06:46:30.349Z,11.02
2023-03-13T06:49:33.175Z,13.55
2023-03-13T06:52:43.894Z,13.70
2023-03-13T06:55:50.349Z,10.30
2023-03-13T06:58:56.409Z,11.63
2023-03-13T07:02:03.820Z,10.52
2023-03-13T07:05:07.842Z,9.52
2023-03-13T07:08:14.845Z,9.95
2023-03-13T07:11:21.888Z,8.93
2023-03-13T07:14:27.287Z,10.00
2023-03-13T07:17:32.035Z,8.18
2023-03-13T07:20:36.816Z,10.98
2023-03-13T07:23:39.781Z,9.20
2023-03-13T07:26:51.227Z,8.10
2023-03-13T07:30:05.647Z,8.02
2023-03-13T07:33:08.008Z,8.95
2023-03-13T07:36:11.322Z,8.05
2023-03-13T07:39:15.773Z,9.50
2023-03-13T07:42:18.050Z,8.52
2023-03-13T07:45:22.616Z,9.80
2023-03-13T07:48:31.211Z,11.70
2023-03-13T07:51:43.390Z,9.57
2023-03-13T07:54:46.474Z,8.95
2023-03-13T07:57:51.720Z,11.63
2023-03-13T08:00:57.058Z,9.45
2023-03-13T08:04:05.588Z,11.13
2023-03-13T08:07:12.005Z,11.77
2023-03-13T08:10:14.620Z,7.68
2023-03-13T08:13:17.008Z,9.63
2023-03-13T08:16:25.954Z,9.40
2023-03-13T08:19:28.360Z,9.20
2023-03-13T08:22:33.120Z,9.77
2023-03-13T08:25:35.411Z,8.93
2023-03-13T08:28:38.961Z,11.60
2023-03-13T08:31:48.684Z,10.02
2023-03-13T08:34:53.374Z,9.68
2023-03-13T08:37:55.661Z,11.60
2023-03-13T08:40:58.096Z,9.40
2023-03-13T08:44:06.388Z,10.13
2023-03-13T08:47:08.976Z,9.45
2023-03-13T08:50:13.736Z,9.45
2023-03-13T08:53:18.546Z,10.23
2023-03-13T08:56:23.226Z,9.07
2023-03-13T08:59:28.153Z,10.35
2023-03-13T09:02:33.052Z,10.85
2023-03-13T09:05:54.978Z,11.88
2023-03-13T09:09:03.379Z,10.10
2023-03-13T09:12:15.503Z,10.82
2023-03-13T09:15:29.031Z,11.50
2023-03-13T09:18:31.851Z,9.50
2023-03-13T09:21:35.807Z,8.27
2023-03-13T09:24:41.263Z,10.60
2023-03-13T09:27:43.588Z,11.70
2023-03-13T09:30:46.218Z,9.25
2023-03-13T09:36:55.583Z,10.13
2023-03-13T09:40:01.065Z,13.68
2023-03-13T09:43:05.611Z,11.85
2023-03-13T09:46:22.644Z,9.38
2023-03-13T09:49:54.312Z,8.82
2023-03-13T09:53:04.391Z,9.25
2023-03-13T09:56:16.781Z,6.93
2023-03-13T09:59:22.586Z,10.38
2023-03-13T10:02:34.732Z,6.47
2023-03-13T10:05:48.865Z,8.23
2023-03-13T10:08:52.892Z,10.00
2023-03-13T10:12:22.185Z,8.38
2023-03-13T10:15:24.433Z,11.73
2023-03-13T10:18:29.032Z,9.57
2023-03-13T10:21:39.270Z,8.25
2023-03-13T10:24:54.838Z,9.20
2023-03-13T10:28:00.121Z,10.32
2023-03-13T10:31:22.254Z,8.73
2023-03-13T10:34:26.915Z,8.00
2023-03-13T10:37:31.338Z,9.45
2023-03-13T10:40:33.799Z,9.43
2023-03-13T10:43:36.080Z,7.50
2023-03-13T10:46:43.811Z,8.50
2023-03-13T10:49:52.132Z,9.05
2023-03-13T10:52:57.689Z,8.23
2023-03-13T10:56:17.706Z,9.65
2023-03-13T10:59:23.903Z,7.90
2023-03-13T11:02:38.841Z,8.30
2023-03-13T11:05:45.032Z,8.40
2023-03-13T11:08:47.421Z,10.98
2023-03-13T11:11:55.665Z,11.50
2023-03-13T11:15:02.166Z,10.48
2023-03-13T11:18:22.556Z,12.48
2023-03-13T11:21:34.398Z,11.05
2023-03-13T11:25:02.687Z,7.00
2023-03-13T11:28:45.953Z,7.97
2023-03-13T11:32:00.564Z,6.75
2023-03-13T11:35:15.153Z,9.18
2023-03-13T11:38:40.650Z,9.85
2023-03-13T11:41:57.007Z,10.25
2023-03-13T11:45:05.433Z,9.68
2023-03-13T11:48:22.031Z,7.65
2023-03-13T11:51:28.693Z,9.43
2023-03-13T11:54:38.605Z,8.50
2023-03-13T11:58:02.644Z,8.57
2023-03-13T12:04:43.888Z,9.40
2023-03-13T12:08:01.971Z,7.43
2023-03-13T12:11:23.428Z,8.00
2023-03-13T12:14:47.450Z,9.15
2023-03-13T12:18:12.308Z,12.35
2023-03-13T12:21:22.047Z,8.52
2023-03-13T12:24:37.718Z,8.07
2023-03-13T12:27:47.439Z,9.20
2023-03-13T12:31:03.670Z,8.50
2023-03-13T12:34:19.217Z,7.72
2023-03-13T12:37:30.956Z,8.30
2023-03-13T12:43:49.656Z,8.98
2023-03-13T12:47:10.484Z,7.63
2023-03-13T12:50:51.134Z,9.10
2023-03-13T12:54:21.021Z,5.53
2023-03-13T12:57:32.073Z,7.90
2023-03-13T13:00:40.141Z,6.88
2023-03-13T13:03:45.428Z,8.10
2023-03-13T13:07:02.649Z,7.10
2023-03-13T13:10:09.945Z,8.68
2023-03-13T13:13:15.217Z,9.25
2023-03-13T13:16:22.078Z,6.97
2023-03-13T13:19:24.351Z,8.60
2023-03-13T13:22:38.416Z,8.32
2023-03-13T13:25:40.896Z,7.03
2023-03-13T13:28:43.947Z,7.32
2023-03-13T13:31:52.311Z,6.95
2023-03-13T13:35:02.868Z,4.63
2023-03-13T13:38:37.251Z,5.38
2023-03-13T13:41:42.857Z,6.32
2023-03-13T13:44:59.733Z,6.13
2023-03-13T13:48:34.058Z,7.85
2023-03-13T13:51:37.805Z,5.82
2023-03-13T13:54:44.703Z,9.55
2023-03-13T13:57:49.494Z,7.07
2023-03-13T14:01:11.010Z,6.03
2023-03-13T14:04:17.012Z,6.03
2023-03-13T14:07:44.745Z,5.60
2023-03-13T14:14:19.575Z,7.85
2023-03-13T14:17:24.306Z,7.57
2023-03-13T14:20:28.649Z,4.30
2023-03-13T14:23:42.401Z,7.32
2023-03-13T14:26:45.414Z,5.43
2023-03-13T14:30:09.127Z,7.13
2023-03-13T14:33:16.240Z,7.97
2023-03-13T14:36:18.551Z,5.45
2023-03-13T14:39:31.467Z,6.68
2023-03-13T14:42:49.624Z,4.43
2023-03-13T14:45:52.421Z,4.38
2023-03-13T14:48:56.241Z,5.32
2023-03-13T14:52:24.044Z,6.47
2023-03-13T14:55:33.766Z,4.57
2023-03-13T14:58:39.008Z,3.55
2023-03-13T15:01:43.530Z,4.28
2023-03-13T15:04:53.258Z,5.47
2023-03-13T15:07:56.071Z,4.40
2023-03-13T15:10:58.608Z,6.68
2023-03-13T15:14:04.228Z,4.22
2023-03-13T15:17:14.364Z,3.63
2023-03-13T15:20:18.260Z,4.07
2023-03-13T15:23:22.915Z,5.28
2023-03-13T15:26:27.468Z,4.22
2023-03-13T15:29:29.697Z,6.50
2023-03-13T15:32:38.661Z,6.07
2023-03-13T15:35:41.128Z,4.28
2023-03-13T15:38:43.566Z,3.58
2023-03-13T15:41:45.954Z,4.07
2023-03-13T15:44:50.490Z,3.38
2023-03-13T15:47:55.256Z,6.30
2023-03-13T15:51:04.157Z,3.33
2023-03-13T15:54:06.448Z,3.97
2023-03-13T15:57:12.524Z,3.05
2023-03-13T16:00:26.144Z,3.55
2023-03-13T16:03:31.004Z,4.20
2023-03-13T16:06:33.570Z,5.60
2023-03-13T16:09:35.855Z,4.78
2023-03-13T16:12:40.482Z,4.80
2023-03-13T16:15:46.484Z,5.50
2023-03-13T16:18:50.321Z,5.70
2023-03-13T16:21:55.054Z,5.93
2023-03-13T16:24:59.802Z,4.45
2023-03-13T16:28:02.036Z,6.50
2023-03-13T16:31:04.484Z,3.00
2023-03-13T16:34:08.119Z,4.45
2023-03-13T16:37:13.655Z,4.05
2023-03-13T16:43:29.528Z,2.85
2023-03-13T16:46:55.686Z,4.10
2023-03-13T16:50:14.972Z,2.80
2023-03-13T16:53:17.254Z,5.03
2023-03-13T16:56:51.339Z,3.42
2023-03-13T16:59:55.941Z,4.43
2023-03-13T17:03:01.278Z,3.50
2023-03-13T17:09:16.122Z,3.13
2023-03-13T17:12:22.954Z,4.53
2023-03-13T17:15:26.315Z,4.07
2023-03-13T17:18:33.461Z,4.97
2023-03-13T17:21:36.793Z,3.30
2023-03-13T17:24:44.615Z,3.63
2023-03-13T17:27:48.531Z,4.70
2023-03-13T17:30:53.102Z,4.18
2023-03-13T17:33:57.876Z,5.00
2023-03-13T17:37:01.640Z,7.13
2023-03-13T17:40:17.410Z,5.20
2023-03-13T17:43:22.673Z,6.20
2023-03-13T17:46:36.987Z,5.97
2023-03-13T17:49:40.764Z,6.80
2023-03-13T17:52:43.898Z,6.35
2023-03-13T17:55:48.616Z,7.20
2023-03-13T17:58:54.352Z,7.30
2023-03-13T18:01:57.187Z,9.55
2023-03-13T18:04:59.563Z,8.82
2023-03-13T18:08:01.967Z,5.82
2023-03-13T18:11:08.594Z,7.38
2023-03-13T18:14:16.968Z,5.50
2023-03-13T18:17:24.383Z,7.38
2023-03-13T18:20:36.931Z,8.50
2023-03-13T18:23:39.189Z,5.30
2023-03-13T18:26:45.492Z,7.07
2023-03-13T18:29:49.305Z,5.78
2023-03-13T18:32:52.357Z,5.93
2023-03-13T18:35:54.645Z,6.28
2023-03-13T18:39:02.331Z,4.85
2023-03-13T18:42:07.489Z,7.05
2023-03-13T18:45:16.904Z,7.55
2023-03-13T18:48:21.481Z,7.88
2023-03-13T18:51:28.034Z,9.35
2023-03-13T18:54:30.575Z,8.50
2023-03-13T18:57:35.218Z,10.13
2023-03-13T19:00:39.982Z,9.25
2023-03-13T19:03:44.268Z,8.30
2023-03-13T19:06:47.939Z,9.95
2023-03-13T19:09:50.238Z,5.75
2023-03-13T19:12:54.849Z,6.13
2023-03-13T19:15:57.133Z,8.75
2023-03-13T19:18:59.424Z,6.95
2023-03-13T19:22:02.191Z,8.20
2023-03-13T19:25:07.817Z,7.75
2023-03-13T19:28:17.064Z,7.80
2023-03-13T19:31:24.822Z,10.25
2023-03-13T19:34:29.485Z,8.98
2023-03-13T19:37:31.721Z,9.00
2023-03-13T19:40:33.964Z,8.45
2023-03-13T19:43:37.291Z,9.57
2023-03-13T19:46:43.434Z,9.10
2023-03-13T19:49:49.913Z,8.20
2023-03-13T19:52:59.577Z,8.88
2023-03-13T19:56:01.923Z,8.85
2023-03-13T19:59:06.758Z,11.27
2023-03-13T20:02:12.519Z,11.63
2023-03-13T20:05:15.054Z,11.05
2023-03-13T20:08:17.284Z,13.02
2023-03-13T20:11:19.565Z,10.30
2023-03-13T20:14:24.330Z,13.15
2023-03-13T20:17:26.912Z,10.73
2023-03-13T20:20:33.491Z,11.93
2023-03-13T20:23:36.045Z,11.75
2023-03-13T20:26:41.080Z,12.27
2023-03-13T20:29:45.819Z,10.98
2023-03-13T20:32:58.816Z,10.23
2023-03-13T20:36:08.308Z,8.32
2023-03-13T20:39:10.717Z,11.02
2023-03-13T20:42:13.066Z,10.13
2023-03-13T20:45:15.367Z,8.63
2023-03-13T20:48:20.783Z,10.85
2023-03-13T20:51:25.477Z,13.43
2023-03-13T20:54:32.965Z,10.13
2023-03-13T20:57:37.711Z,14.25
2023-03-13T21:00:41.296Z,8.77
2023-03-13T21:03:43.689Z,8.57
2023-03-13T21:06:45.967Z,8.88
2023-03-13T21:09:48.232Z,10.80
2023-03-13T21:12:50.565Z,8.10
2023-03-13T21:16:04.752Z,20.75
2023-03-13T21:19:11.969Z,9.02
2023-03-13T21:22:16.565Z,9.52
2023-03-13T21:25:19.324Z,8.95
2023-03-13T21:28:23.754Z,9.07
2023-03-13T21:31:26.023Z,8.30
2023-03-13T21:34:28.292Z,6.80
2023-03-13T21:37:34.975Z,9.38
2023-03-13T21:40:39.797Z,6.95
2023-03-13T21:43:45.036Z,7.85
2023-03-13T21:46:48.575Z,7.47
2023-03-13T21:49:52.155Z,9.90
2023-03-13T21:52:56.681Z,8.77
2023-03-13T21:56:02.051Z,8.48
2023-03-13T21:59:04.317Z,10.45
2023-03-13T22:02:06.990Z,9.18
2023-03-13T22:05:14.409Z,9.30
2023-03-13T22:08:16.632Z,8.38
2023-03-13T22:11:21.388Z,9.43
2023-03-13T22:14:25.477Z,7.63
2023-03-13T22:17:30.156Z,8.63
2023-03-13T22:20:32.427Z,8.30
2023-03-13T22:23:37.171Z,8.40
2023-03-13T22:26:39.633Z,9.18
2023-03-13T22:29:47.650Z,8.32
2023-03-13T22:32:49.982Z,6.95
2023-03-13T22:35:54.656Z,8.00
2023-03-13T22:38:56.989Z,7.75
2023-03-13T22:42:01.404Z,7.97
2023-03-13T22:45:04.451Z,10.25
2023-03-13T22:48:09.117Z,9.65
2023-03-13T22:51:16.795Z,10.13
2023-03-13T22:54:19.054Z,10.57
2023-03-13T22:57:25.985Z,10.00
2023-03-13T23:00:33.293Z,9.90
2023-03-13T23:03:40.632Z,8.52
2023-03-13T23:06:45.180Z,8.68
2023-03-13T23:09:49.850Z,12.35
2023-03-13T23:12:54.398Z,11.10
2023-03-13T23:16:00.161Z,9.93
2023-03-13T23:19:07.836Z,8.57
2023-03-13T23:22:12.947Z,6.63
2023-03-13T23:25:15.318Z,8.35
2023-03-13T23:28:20.571Z,7.80
2023-03-13T23:31:26.848Z,9.20
2023-03-13T23:34:29.148Z,10.65
2023-03-13T23:37:34.562Z,10.60
2023-03-13T23:40:37.168Z,10.05
2023-03-13T23:43:41.938Z,10.00
2023-03-13T23:46:44.289Z,9.63
2023-03-13T23:49:59.463Z,10.32
2023-03-13T23:53:07.657Z,10.73
2023-03-13T23:56:13.123Z,9.10
2023-03-13T23:59:15.482Z,10.48
